createdAt,value
2024-04-21T00:00:12.278Z,1.02
2024-04-21T00:00:44.962Z,1.02
2024-04-21T00:01:17.731Z,1.02
2024-04-21T00:01:50.477Z,1.00
2024-04-21T00:02:23.194Z,1.04
2024-04-21T00:02:55.893Z,1.04
2024-04-21T00:03:28.698Z,0.98
2024-04-21T00:04:01.577Z,0.97
2024-04-21T00:04:34.385Z,0.94
2024-04-21T00:05:07.079Z,0.88
2024-04-21T00:05:39.739Z,0.90
2024-04-21T00:06:10.846Z,0.88
2024-04-21T00:06:43.550Z,0.86
2024-04-21T00:07:16.271Z,0.84
2024-04-21T00:07:48.963Z,0.86
2024-04-21T00:08:21.644Z,0.84
2024-04-21T00:08:54.329Z,0.83
2024-04-21T00:09:27.013Z,0.80
2024-04-21T00:09:59.696Z,0.78
2024-04-21T00:10:32.362Z,0.75
2024-04-21T00:11:05.139Z,0.75
2024-04-21T00:11:37.849Z,0.73
2024-04-21T00:12:10.491Z,0.75
2024-04-21T00:12:43.189Z,0.72
2024-04-21T00:13:15.895Z,0.72
2024-04-21T00:13:48.578Z,0.69
2024-04-21T00:14:21.251Z,0.65
2024-04-21T00:14:53.924Z,0.62
2024-04-21T00:15:26.624Z,0.61
2024-04-21T00:15:59.356Z,0.60
2024-04-21T00:16:32.128Z,0.58
2024-04-21T00:17:05.070Z,0.57
2024-04-21T00:17:37.828Z,0.55
2024-04-21T00:18:10.481Z,0.55
2024-04-21T00:18:43.198Z,0.55
2024-04-21T00:19:15.959Z,0.57
2024-04-21T00:19:48.640Z,0.58
2024-04-21T00:20:21.346Z,0.58
2024-04-21T00:20:54.010Z,0.57
2024-04-21T00:21:26.692Z,0.57
2024-04-21T00:21:59.403Z,0.57
2024-04-21T00:22:32.096Z,0.55
2024-04-21T00:23:04.842Z,0.55
2024-04-21T00:23:37.494Z,0.55
2024-04-21T00:24:10.186Z,0.55
2024-04-21T00:24:42.864Z,0.53
2024-04-21T00:25:15.583Z,0.53
2024-04-21T00:25:48.319Z,0.55
2024-04-21T00:26:21.013Z,0.53
2024-04-21T00:26:53.684Z,0.53
2024-04-21T00:27:26.346Z,0.53
2024-04-21T00:27:59.092Z,0.55
2024-04-21T00:28:31.751Z,0.53
2024-04-21T00:29:04.426Z,0.53
2024-04-21T00:29:37.150Z,0.53
2024-04-21T00:30:09.793Z,0.53
2024-04-21T00:30:42.486Z,0.55
2024-04-21T00:31:15.495Z,0.51
2024-04-21T00:31:48.237Z,0.50
2024-04-21T00:32:20.916Z,0.50
2024-04-21T00:32:53.661Z,0.49
2024-04-21T00:33:26.604Z,0.46
2024-04-21T00:33:59.372Z,0.46
2024-04-21T00:34:32.229Z,0.44
2024-04-21T00:35:04.987Z,0.42
2024-04-21T00:35:37.659Z,0.42
2024-04-21T00:36:10.333Z,0.39
2024-04-21T00:36:43.048Z,0.41
2024-04-21T00:37:15.803Z,0.39
2024-04-21T00:37:48.475Z,0.39
2024-04-21T00:38:21.182Z,0.39
2024-04-21T00:38:53.844Z,0.41
2024-04-21T00:39:26.537Z,0.41
2024-04-21T00:39:59.246Z,0.41
2024-04-21T00:40:31.977Z,0.39
2024-04-21T00:41:04.655Z,0.38
2024-04-21T00:41:37.332Z,0.38
2024-04-21T00:42:09.991Z,0.38
2024-04-21T00:42:42.708Z,0.35
2024-04-21T00:43:15.404Z,0.33
2024-04-21T00:43:48.174Z,0.33
2024-04-21T00:44:20.853Z,0.32
2024-04-21T00:44:53.517Z,0.31
2024-04-21T00:45:31.451Z,0.28
2024-04-21T00:45:58.311Z,0.26
2024-04-21T00:46:24.492Z,0.26
2024-04-21T00:46:57.179Z,0.24
2024-04-21T00:47:29.891Z,0.24
2024-04-21T00:48:02.623Z,0.26
2024-04-21T00:48:35.396Z,0.26
2024-04-21T00:49:08.092Z,0.21
2024-04-21T00:49:40.760Z,0.20
2024-04-21T00:50:13.454Z,0.14
2024-04-21T00:50:46.126Z,0.14
2024-04-21T00:51:18.801Z,0.11
2024-04-21T00:51:51.483Z,0.08
2024-04-21T00:52:24.149Z,0.08
2024-04-21T00:52:56.844Z,0.07
2024-04-21T00:53:29.546Z,0.04
2024-04-21T00:54:02.219Z,0.07
2024-04-21T00:54:34.890Z,0.04
2024-04-21T00:55:07.588Z,0.08
2024-04-21T00:55:40.267Z,0.07
2024-04-21T00:56:12.960Z,0.04
2024-04-21T00:56:45.628Z,0.03
2024-04-21T00:57:18.296Z,0.02
2024-04-21T00:57:51.015Z,0.00
2024-04-21T00:58:23.736Z,0.00
2024-04-21T00:58:56.412Z,-0.03
2024-04-21T00:59:29.073Z,-0.03
2024-04-21T01:00:01.798Z,-0.03
2024-04-21T01:00:42.607Z,-0.04
2024-04-21T01:01:02.440Z,-0.03
2024-04-21T01:01:35.228Z,-0.05
2024-04-21T01:02:14.972Z,-0.05
2024-04-21T01:02:34.866Z,-0.07
2024-04-21T01:03:07.576Z,-0.05
2024-04-21T01:03:40.259Z,-0.05
2024-04-21T01:04:12.972Z,-0.08
2024-04-21T01:04:45.745Z,-0.10
2024-04-21T01:05:18.537Z,-0.10
2024-04-21T01:05:53.450Z,-0.08
2024-04-21T01:06:19.901Z,-0.10
2024-04-21T01:06:52.634Z,-0.10
2024-04-21T01:07:25.285Z,-0.14
2024-04-21T01:07:57.970Z,-0.15
2024-04-21T01:08:30.714Z,-0.16
2024-04-21T01:09:03.370Z,-0.18
2024-04-21T01:09:36.055Z,-0.21
2024-04-21T01:10:08.775Z,-0.19
2024-04-21T01:10:41.441Z,-0.19
2024-04-21T01:11:14.128Z,-0.19
2024-04-21T01:11:46.784Z,-0.18
2024-04-21T01:12:19.454Z,-0.18
2024-04-21T01:12:52.164Z,-0.21
2024-04-21T01:13:24.919Z,-0.22
2024-04-21T01:13:57.572Z,-0.23
2024-04-21T01:14:30.248Z,-0.26
2024-04-21T01:15:02.926Z,-0.28
2024-04-21T01:15:35.590Z,-0.28
2024-04-21T01:16:08.322Z,-0.28
2024-04-21T01:16:40.999Z,-0.28
2024-04-21T01:17:13.706Z,-0.25
2024-04-21T01:17:46.494Z,-0.26
2024-04-21T01:18:19.264Z,-0.26
2024-04-21T01:18:51.951Z,-0.25
2024-04-21T01:19:24.618Z,-0.23
2024-04-21T01:19:57.297Z,-0.22
2024-04-21T01:20:29.966Z,-0.21
2024-04-21T01:21:02.636Z,-0.22
2024-04-21T01:21:35.316Z,-0.21
2024-04-21T01:22:08.005Z,-0.22
2024-04-21T01:22:40.694Z,-0.23
2024-04-21T01:23:13.370Z,-0.22
2024-04-21T01:23:46.051Z,-0.22
2024-04-21T01:24:18.729Z,-0.22
2024-04-21T01:24:51.441Z,-0.22
2024-04-21T01:25:24.157Z,-0.22
2024-04-21T01:25:56.825Z,-0.22
2024-04-21T01:26:29.492Z,-0.23
2024-04-21T01:27:02.157Z,-0.22
2024-04-21T01:27:34.841Z,-0.22
2024-04-21T01:28:07.580Z,-0.22
2024-04-21T01:28:40.301Z,-0.22
2024-04-21T01:29:12.993Z,-0.22
2024-04-21T01:29:45.671Z,-0.23
2024-04-21T01:30:18.394Z,-0.23
2024-04-21T01:30:51.058Z,-0.23
2024-04-21T01:31:23.770Z,-0.23
2024-04-21T01:31:56.431Z,-0.28
2024-04-21T01:32:29.133Z,-0.28
2024-04-21T01:33:01.903Z,-0.28
2024-04-21T01:33:34.584Z,-0.29
2024-04-21T01:34:07.327Z,-0.31
2024-04-21T01:34:40.004Z,-0.34
2024-04-21T01:35:12.684Z,-0.34
2024-04-21T01:35:45.348Z,-0.36
2024-04-21T01:36:18.029Z,-0.40
2024-04-21T01:36:50.742Z,-0.43
2024-04-21T01:37:23.462Z,-0.46
2024-04-21T01:37:56.137Z,-0.47
2024-04-21T01:38:28.830Z,-0.49
2024-04-21T01:39:01.498Z,-0.51
2024-04-21T01:39:34.221Z,-0.51
2024-04-21T01:40:06.957Z,-0.49
2024-04-21T01:40:39.647Z,-0.47
2024-04-21T01:41:12.322Z,-0.47
2024-04-21T01:41:44.989Z,-0.46
2024-04-21T01:42:17.655Z,-0.47
2024-04-21T01:42:50.351Z,-0.44
2024-04-21T01:43:23.104Z,-0.47
2024-04-21T01:43:55.760Z,-0.46
2024-04-21T01:44:28.451Z,-0.47
2024-04-21T01:45:01.152Z,-0.46
2024-04-21T01:45:33.824Z,-0.47
2024-04-21T01:46:06.562Z,-0.47
2024-04-21T01:46:39.262Z,-0.49
2024-04-21T01:47:11.989Z,-0.54
2024-04-21T01:47:44.710Z,-0.49
2024-04-21T01:48:17.355Z,-0.52
2024-04-21T01:48:50.045Z,-0.52
2024-04-21T01:49:22.741Z,-0.54
2024-04-21T01:49:55.430Z,-0.54
2024-04-21T01:50:28.112Z,-0.54
2024-04-21T01:51:00.792Z,-0.55
2024-04-21T01:51:33.460Z,-0.54
2024-04-21T01:52:06.178Z,-0.55
2024-04-21T01:52:38.858Z,-0.54
2024-04-21T01:53:11.540Z,-0.55
2024-04-21T01:53:44.202Z,-0.54
2024-04-21T01:54:16.892Z,-0.55
2024-04-21T01:54:49.652Z,-0.55
2024-04-21T01:55:22.457Z,-0.58
2024-04-21T01:55:55.177Z,-0.55
2024-04-21T01:56:27.856Z,-0.57
2024-04-21T01:57:00.525Z,-0.55
2024-04-21T01:57:33.209Z,-0.55
2024-04-21T01:58:05.963Z,-0.58
2024-04-21T01:58:38.627Z,-0.57
2024-04-21T01:59:11.307Z,-0.57
2024-04-21T01:59:43.991Z,-0.58
2024-04-21T02:00:16.666Z,-0.55
2024-04-21T02:00:49.395Z,-0.58
2024-04-21T02:01:22.105Z,-0.57
2024-04-21T02:01:54.806Z,-0.60
2024-04-21T02:02:27.513Z,-0.62
2024-04-21T02:03:00.174Z,-0.64
2024-04-21T02:03:32.932Z,-0.62
2024-04-21T02:04:05.758Z,-0.64
2024-04-21T02:04:38.529Z,-0.61
2024-04-21T02:05:11.327Z,-0.65
2024-04-21T02:05:44.009Z,-0.64
2024-04-21T02:06:16.671Z,-0.64
2024-04-21T02:06:49.369Z,-0.62
2024-04-21T02:07:22.064Z,-0.64
2024-04-21T02:07:54.739Z,-0.62
2024-04-21T02:08:27.413Z,-0.64
2024-04-21T02:09:00.087Z,-0.64
2024-04-21T02:09:32.756Z,-0.67
2024-04-21T02:10:05.476Z,-0.69
2024-04-21T02:10:38.200Z,-0.70
2024-04-21T02:11:10.907Z,-0.69
2024-04-21T02:11:43.587Z,-0.70
2024-04-21T02:12:16.297Z,-0.69
2024-04-21T02:12:49.023Z,-0.72
2024-04-21T02:13:21.710Z,-0.72
2024-04-21T02:13:54.380Z,-0.72
2024-04-21T02:14:27.066Z,-0.72
2024-04-21T02:14:59.736Z,-0.72
2024-04-21T02:15:32.436Z,-0.72
2024-04-21T02:16:05.130Z,-0.72
2024-04-21T02:16:37.788Z,-0.72
2024-04-21T02:17:10.502Z,-0.72
2024-04-21T02:17:43.252Z,-0.72
2024-04-21T02:18:16.006Z,-0.72
2024-04-21T02:18:48.715Z,-0.72
2024-04-21T02:19:22.610Z,-0.72
2024-04-21T02:19:49.868Z,-0.70
2024-04-21T02:20:22.595Z,-0.72
2024-04-21T02:20:55.253Z,-0.72
2024-04-21T02:21:27.926Z,-0.70
2024-04-21T02:22:00.759Z,-0.72
2024-04-21T02:22:33.431Z,-0.75
2024-04-21T02:23:06.097Z,-0.75
2024-04-21T02:23:38.769Z,-0.73
2024-04-21T02:24:11.450Z,-0.72
2024-04-21T02:24:44.164Z,-0.73
2024-04-21T02:25:16.905Z,-0.76
2024-04-21T02:25:49.662Z,-0.78
2024-04-21T02:26:22.357Z,-0.83
2024-04-21T02:26:55.020Z,-0.83
2024-04-21T02:27:27.715Z,-0.89
2024-04-21T02:28:00.445Z,-0.92
2024-04-21T02:28:33.121Z,-0.91
2024-04-21T02:29:05.803Z,-0.92
2024-04-21T02:29:38.467Z,-0.91
2024-04-21T02:30:11.149Z,-0.94
2024-04-21T02:30:43.840Z,-0.94
2024-04-21T02:31:16.543Z,-0.95
2024-04-21T02:31:49.217Z,-0.94
2024-04-21T02:32:21.912Z,-0.95
2024-04-21T02:32:54.642Z,-0.95
2024-04-21T02:33:27.384Z,-0.94
2024-04-21T02:34:00.087Z,-0.92
2024-04-21T02:34:32.741Z,-0.89
2024-04-21T02:35:05.429Z,-0.86
2024-04-21T02:35:38.093Z,-0.86
2024-04-21T02:36:10.781Z,-0.86
2024-04-21T02:36:43.439Z,-0.85
2024-04-21T02:37:16.164Z,-0.82
2024-04-21T02:37:48.866Z,-0.83
2024-04-21T02:38:21.550Z,-0.83
2024-04-21T02:38:54.198Z,-0.80
2024-04-21T02:39:26.869Z,-0.80
2024-04-21T02:39:59.557Z,-0.80
2024-04-21T02:40:32.216Z,-0.79
2024-04-21T02:41:04.891Z,-0.78
2024-04-21T02:41:37.598Z,-0.78
2024-04-21T02:42:10.265Z,-0.76
2024-04-21T02:42:41.350Z,-0.75
2024-04-21T02:43:14.193Z,-0.76
2024-04-21T02:43:46.880Z,-0.75
2024-04-21T02:44:19.559Z,-0.73
2024-04-21T02:44:52.265Z,-0.73
2024-04-21T02:45:24.937Z,-0.75
2024-04-21T02:45:57.640Z,-0.73
2024-04-21T02:46:30.320Z,-0.73
2024-04-21T02:47:03.008Z,-0.73
2024-04-21T02:47:35.740Z,-0.70
2024-04-21T02:48:08.423Z,-0.70
2024-04-21T02:48:41.125Z,-0.70
2024-04-21T02:49:13.832Z,-0.70
2024-04-21T02:49:46.485Z,-0.70
2024-04-21T02:50:19.164Z,-0.70
2024-04-21T02:50:51.832Z,-0.69
2024-04-21T02:51:24.539Z,-0.69
2024-04-21T02:51:57.215Z,-0.70
2024-04-21T02:52:29.878Z,-0.70
2024-04-21T02:53:02.555Z,-0.72
2024-04-21T02:53:35.247Z,-0.72
2024-04-21T02:54:07.915Z,-0.72
2024-04-21T02:54:40.603Z,-0.70
2024-04-21T02:55:13.318Z,-0.73
2024-04-21T02:55:45.974Z,-0.70
2024-04-21T02:56:18.791Z,-0.70
2024-04-21T02:56:51.515Z,-0.72
2024-04-21T02:57:24.225Z,-0.75
2024-04-21T02:57:56.935Z,-0.73
2024-04-21T02:58:29.579Z,-0.72
2024-04-21T02:59:02.241Z,-0.72
2024-04-21T02:59:34.923Z,-0.75
2024-04-21T03:00:07.594Z,-0.73
2024-04-21T03:00:40.378Z,-0.75
2024-04-21T03:01:13.186Z,-0.73
2024-04-21T03:01:45.912Z,-0.75
2024-04-21T03:02:18.578Z,-0.73
2024-04-21T03:02:51.288Z,-0.73
2024-04-21T03:03:23.999Z,-0.72
2024-04-21T03:03:56.749Z,-0.72
2024-04-21T03:04:29.527Z,-0.75
2024-04-21T03:05:04.562Z,-0.75
2024-04-21T03:05:33.035Z,-0.73
2024-04-21T03:06:05.784Z,-0.72
2024-04-21T03:06:38.465Z,-0.78
2024-04-21T03:07:11.191Z,-0.75
2024-04-21T03:07:43.856Z,-0.76
2024-04-21T03:08:16.524Z,-0.76
2024-04-21T03:08:49.217Z,-0.75
2024-04-21T03:09:21.901Z,-0.73
2024-04-21T03:09:54.668Z,-0.75
2024-04-21T03:10:27.486Z,-0.73
2024-04-21T03:11:00.315Z,-0.73
2024-04-21T03:11:33.053Z,-0.73
2024-04-21T03:12:05.739Z,-0.73
2024-04-21T03:12:38.388Z,-0.73
2024-04-21T03:13:11.078Z,-0.75
2024-04-21T03:13:43.722Z,-0.72
2024-04-21T03:14:16.404Z,-0.73
2024-04-21T03:14:49.077Z,-0.73
2024-04-21T03:15:21.763Z,-0.76
2024-04-21T03:15:54.456Z,-0.76
2024-04-21T03:16:27.136Z,-0.76
2024-04-21T03:16:59.852Z,-0.79
2024-04-21T03:17:32.607Z,-0.75
2024-04-21T03:18:05.342Z,-0.75
2024-04-21T03:18:38.010Z,-0.75
2024-04-21T03:19:10.707Z,-0.76
2024-04-21T03:19:43.359Z,-0.73
2024-04-21T03:20:16.029Z,-0.75
2024-04-21T03:20:48.705Z,-0.73
2024-04-21T03:21:21.387Z,-0.73
2024-04-21T03:21:54.060Z,-0.76
2024-04-21T03:22:26.767Z,-0.76
2024-04-21T03:22:59.430Z,-0.76
2024-04-21T03:23:32.104Z,-0.78
2024-04-21T03:24:04.794Z,-0.79
2024-04-21T03:24:37.445Z,-0.79
2024-04-21T03:25:10.196Z,-0.82
2024-04-21T03:25:42.855Z,-0.79
2024-04-21T03:26:15.532Z,-0.80
2024-04-21T03:26:48.197Z,-0.80
2024-04-21T03:27:20.896Z,-0.83
2024-04-21T03:27:53.572Z,-0.85
2024-04-21T03:28:26.287Z,-0.85
2024-04-21T03:28:58.969Z,-0.85
2024-04-21T03:29:31.648Z,-0.86
2024-04-21T03:30:04.311Z,-0.86
2024-04-21T03:30:37.004Z,-0.85
2024-04-21T03:31:09.687Z,-0.86
2024-04-21T03:31:42.349Z,-0.86
2024-04-21T03:32:15.042Z,-0.85
2024-04-21T03:32:47.758Z,-0.83
2024-04-21T03:33:20.500Z,-0.86
2024-04-21T03:33:53.182Z,-0.83
2024-04-21T03:34:25.853Z,-0.89
2024-04-21T03:34:58.510Z,-0.83
2024-04-21T03:35:31.179Z,-0.85
2024-04-21T03:36:04.008Z,-0.82
2024-04-21T03:36:36.748Z,-0.83
2024-04-21T03:37:09.463Z,-0.82
2024-04-21T03:37:42.144Z,-0.80
2024-04-21T03:38:14.818Z,-0.82
2024-04-21T03:38:47.486Z,-0.80
2024-04-21T03:39:20.236Z,-0.80
2024-04-21T03:39:53.091Z,-0.79
2024-04-21T03:40:25.804Z,-0.80
2024-04-21T03:40:58.469Z,-0.79
2024-04-21T03:41:31.121Z,-0.82
2024-04-21T03:42:02.213Z,-0.78
2024-04-21T03:42:34.913Z,-0.78
2024-04-21T03:43:07.649Z,-0.78
2024-04-21T03:43:40.335Z,-0.78
2024-04-21T03:44:13.028Z,-0.80
2024-04-21T03:44:45.711Z,-0.79
2024-04-21T03:45:18.433Z,-0.79
2024-04-21T03:45:51.080Z,-0.78
2024-04-21T03:46:24.975Z,-0.78
2024-04-21T03:46:51.295Z,-0.78
2024-04-21T03:47:24.041Z,-0.78
2024-04-21T03:47:56.778Z,-0.76
2024-04-21T03:48:29.488Z,-0.78
2024-04-21T03:49:02.175Z,-0.75
2024-04-21T03:49:34.859Z,-0.75
2024-04-21T03:50:07.525Z,-0.76
2024-04-21T03:50:40.194Z,-0.76
2024-04-21T03:51:12.871Z,-0.72
2024-04-21T03:51:45.600Z,-0.75
2024-04-21T03:52:18.348Z,-0.75
2024-04-21T03:52:51.023Z,-0.75
2024-04-21T03:53:23.740Z,-0.75
2024-04-21T03:53:56.409Z,-0.75
2024-04-21T03:54:29.070Z,-0.75
2024-04-21T03:55:01.789Z,-0.75
2024-04-21T03:55:34.440Z,-0.75
2024-04-21T03:56:07.120Z,-0.75
2024-04-21T03:56:39.807Z,-0.75
2024-04-21T03:57:12.467Z,-0.75
2024-04-21T03:57:45.294Z,-0.73
2024-04-21T03:58:18.186Z,-0.75
2024-04-21T03:58:50.941Z,-0.73
2024-04-21T03:59:23.613Z,-0.73
2024-04-21T03:59:56.303Z,-0.73
2024-04-21T04:00:28.969Z,-0.72
2024-04-21T04:01:01.802Z,-0.72
2024-04-21T04:01:34.637Z,-0.72
2024-04-21T04:02:07.330Z,-0.73
2024-04-21T04:02:40.027Z,-0.72
2024-04-21T04:03:12.745Z,-0.73
2024-04-21T04:03:45.475Z,-0.73
2024-04-21T04:04:18.292Z,-0.70
2024-04-21T04:04:51.101Z,-0.70
2024-04-21T04:05:23.841Z,-0.70
2024-04-21T04:05:56.527Z,-0.67
2024-04-21T04:06:29.187Z,-0.67
2024-04-21T04:07:01.893Z,-0.67
2024-04-21T04:07:32.988Z,-0.69
2024-04-21T04:08:05.639Z,-0.67
2024-04-21T04:08:38.372Z,-0.69
2024-04-21T04:09:11.042Z,-0.67
2024-04-21T04:09:43.703Z,-0.64
2024-04-21T04:10:16.400Z,-0.65
2024-04-21T04:10:49.072Z,-0.65
2024-04-21T04:11:21.789Z,-0.65
2024-04-21T04:11:54.476Z,-0.67
2024-04-21T04:12:27.143Z,-0.65
2024-04-21T04:12:59.841Z,-0.64
2024-04-21T04:13:32.527Z,-0.64
2024-04-21T04:14:05.188Z,-0.65
2024-04-21T04:14:37.871Z,-0.65
2024-04-21T04:15:10.541Z,-0.69
2024-04-21T04:15:43.236Z,-0.70
2024-04-21T04:16:16.021Z,-0.72
2024-04-21T04:16:48.781Z,-0.69
2024-04-21T04:17:21.479Z,-0.72
2024-04-21T04:17:54.213Z,-0.72
2024-04-21T04:18:27.012Z,-0.72
2024-04-21T04:18:59.681Z,-0.73
2024-04-21T04:19:32.354Z,-0.72
2024-04-21T04:20:05.063Z,-0.70
2024-04-21T04:20:38.730Z,-0.73
2024-04-21T04:21:05.066Z,-0.70
2024-04-21T04:21:37.738Z,-0.72
2024-04-21T04:22:10.440Z,-0.69
2024-04-21T04:22:43.125Z,-0.69
2024-04-21T04:23:15.788Z,-0.67
2024-04-21T04:23:48.472Z,-0.65
2024-04-21T04:24:21.157Z,-0.65
2024-04-21T04:24:53.869Z,-0.65
2024-04-21T04:25:26.543Z,-0.64
2024-04-21T04:25:59.210Z,-0.67
2024-04-21T04:26:31.876Z,-0.67
2024-04-21T04:27:04.534Z,-0.65
2024-04-21T04:27:37.211Z,-0.67
2024-04-21T04:28:09.954Z,-0.70
2024-04-21T04:28:42.629Z,-0.70
2024-04-21T04:29:15.302Z,-0.70
2024-04-21T04:29:47.977Z,-0.72
2024-04-21T04:30:20.642Z,-0.72
2024-04-21T04:30:53.325Z,-0.72
2024-04-21T04:31:26.036Z,-0.73
2024-04-21T04:31:58.690Z,-0.72
2024-04-21T04:32:31.440Z,-0.72
2024-04-21T04:33:04.247Z,-0.73
2024-04-21T04:33:37.048Z,-0.72
2024-04-21T04:34:09.802Z,-0.73
2024-04-21T04:34:42.525Z,-0.72
2024-04-21T04:35:15.197Z,-0.70
2024-04-21T04:35:47.869Z,-0.72
2024-04-21T04:36:20.554Z,-0.72
2024-04-21T04:36:53.257Z,-0.70
2024-04-21T04:37:25.981Z,-0.73
2024-04-21T04:37:58.689Z,-0.73
2024-04-21T04:38:31.422Z,-0.75
2024-04-21T04:39:04.100Z,-0.73
2024-04-21T04:39:36.792Z,-0.73
2024-04-21T04:40:07.921Z,-0.72
2024-04-21T04:40:40.568Z,-0.72
2024-04-21T04:41:13.234Z,-0.70
2024-04-21T04:41:45.923Z,-0.72
2024-04-21T04:42:18.587Z,-0.72
2024-04-21T04:42:51.292Z,-0.72
2024-04-21T04:43:24.028Z,-0.70
2024-04-21T04:43:56.727Z,-0.70
2024-04-21T04:44:29.402Z,-0.69
2024-04-21T04:45:02.068Z,-0.69
2024-04-21T04:45:34.734Z,-0.67
2024-04-21T04:46:07.526Z,-0.67
2024-04-21T04:46:40.241Z,-0.67
2024-04-21T04:47:12.949Z,-0.67
2024-04-21T04:47:45.649Z,-0.65
2024-04-21T04:48:18.333Z,-0.67
2024-04-21T04:48:51.029Z,-0.65
2024-04-21T04:49:23.704Z,-0.64
2024-04-21T04:49:56.379Z,-0.64
2024-04-21T04:50:27.468Z,-0.65
2024-04-21T04:51:00.148Z,-0.61
2024-04-21T04:51:32.810Z,-0.67
2024-04-21T04:52:05.527Z,-0.64
2024-04-21T04:52:38.172Z,-0.65
2024-04-21T04:53:10.853Z,-0.64
2024-04-21T04:53:44.431Z,-0.64
2024-04-21T04:54:10.679Z,-0.65
2024-04-21T04:54:43.365Z,-0.61
2024-04-21T04:55:16.113Z,-0.62
2024-04-21T04:55:48.795Z,-0.62
2024-04-21T04:56:21.483Z,-0.61
2024-04-21T04:56:54.197Z,-0.62
2024-04-21T04:57:26.865Z,-0.60
2024-04-21T04:57:59.552Z,-0.60
2024-04-21T04:58:32.254Z,-0.61
2024-04-21T04:59:07.493Z,-0.57
2024-04-21T04:59:34.232Z,-0.57
2024-04-21T05:00:06.893Z,-0.55
2024-04-21T05:00:39.619Z,-0.57
2024-04-21T05:01:12.373Z,-0.55
2024-04-21T05:01:45.201Z,-0.54
2024-04-21T05:02:17.875Z,-0.54
2024-04-21T05:02:50.596Z,-0.52
2024-04-21T05:03:23.273Z,-0.52
2024-04-21T05:03:56.024Z,-0.51
2024-04-21T05:04:28.935Z,-0.47
2024-04-21T05:04:59.839Z,-0.47
2024-04-21T05:05:32.530Z,-0.46
2024-04-21T05:06:05.222Z,-0.46
2024-04-21T05:06:37.888Z,-0.44
2024-04-21T05:07:13.467Z,-0.43
2024-04-21T05:07:40.162Z,-0.42
2024-04-21T05:08:12.826Z,-0.40
2024-04-21T05:08:45.496Z,-0.39
2024-04-21T05:09:18.174Z,-0.39
2024-04-21T05:09:50.889Z,-0.36
2024-04-21T05:10:23.560Z,-0.34
2024-04-21T05:10:56.277Z,-0.34
2024-04-21T05:11:28.993Z,-0.33
2024-04-21T05:12:01.623Z,-0.31
2024-04-21T05:12:34.309Z,-0.31
2024-04-21T05:13:07.002Z,-0.29
2024-04-21T05:13:39.670Z,-0.29
2024-04-21T05:14:12.324Z,-0.26
2024-04-21T05:14:45.014Z,-0.26
2024-04-21T05:15:17.687Z,-0.25
2024-04-21T05:15:50.378Z,-0.23
2024-04-21T05:16:23.113Z,-0.21
2024-04-21T05:16:55.783Z,-0.19
2024-04-21T05:17:28.502Z,-0.18
2024-04-21T05:18:01.286Z,-0.18
2024-04-21T05:18:34.010Z,-0.16
2024-04-21T05:19:06.718Z,-0.15
2024-04-21T05:19:39.383Z,-0.11
2024-04-21T05:20:12.061Z,-0.08
2024-04-21T05:20:44.729Z,-0.05
2024-04-21T05:21:17.405Z,-0.04
2024-04-21T05:21:50.103Z,-0.04
2024-04-21T05:22:22.823Z,0.00
2024-04-21T05:22:55.536Z,0.00
2024-04-21T05:23:28.203Z,0.02
2024-04-21T05:24:00.872Z,0.07
2024-04-21T05:24:33.544Z,0.08
2024-04-21T05:25:06.290Z,0.13
2024-04-21T05:25:39.004Z,0.14
2024-04-21T05:26:11.685Z,0.17
2024-04-21T05:26:44.352Z,0.17
2024-04-21T05:27:17.026Z,0.21
2024-04-21T05:27:49.704Z,0.23
2024-04-21T05:28:36.260Z,0.26
2024-04-21T05:28:54.507Z,0.26
2024-04-21T05:29:20.699Z,0.28
2024-04-21T05:29:53.369Z,0.32
2024-04-21T05:30:26.053Z,0.36
2024-04-21T05:30:58.740Z,0.35
2024-04-21T05:31:31.405Z,0.38
2024-04-21T05:32:04.135Z,0.39
2024-04-21T05:32:36.957Z,0.42
2024-04-21T05:33:09.760Z,0.44
2024-04-21T05:33:42.404Z,0.46
2024-04-21T05:34:15.085Z,0.50
2024-04-21T05:34:47.761Z,0.50
2024-04-21T05:35:20.462Z,0.51
2024-04-21T05:35:53.147Z,0.53
2024-04-21T05:36:25.824Z,0.55
2024-04-21T05:36:58.505Z,0.57
2024-04-21T05:37:31.170Z,0.58
2024-04-21T05:38:03.835Z,0.62
2024-04-21T05:38:36.505Z,0.62
2024-04-21T05:39:09.198Z,0.66
2024-04-21T05:39:41.865Z,0.68
2024-04-21T05:40:14.598Z,0.70
2024-04-21T05:40:47.288Z,0.70
2024-04-21T05:41:19.957Z,0.75
2024-04-21T05:41:52.640Z,0.78
2024-04-21T05:42:25.319Z,0.80
2024-04-21T05:42:58.031Z,0.86
2024-04-21T05:43:30.681Z,0.88
2024-04-21T05:44:03.382Z,0.91
2024-04-21T05:44:36.048Z,0.97
2024-04-21T05:45:08.697Z,0.97
2024-04-21T05:45:41.392Z,1.00
2024-04-21T05:46:14.088Z,1.06
2024-04-21T05:46:46.763Z,1.05
2024-04-21T05:47:19.615Z,1.06
2024-04-21T05:47:52.494Z,1.09
2024-04-21T05:48:25.226Z,1.12
2024-04-21T05:48:57.895Z,1.12
2024-04-21T05:49:30.550Z,1.16
2024-04-21T05:50:03.244Z,1.22
2024-04-21T05:50:36.000Z,1.23
2024-04-21T05:51:08.729Z,1.26
2024-04-21T05:51:41.429Z,1.29
2024-04-21T05:52:14.131Z,1.30
2024-04-21T05:52:46.789Z,1.33
2024-04-21T05:53:19.467Z,1.33
2024-04-21T05:53:54.053Z,1.37
2024-04-21T05:54:21.218Z,1.40
2024-04-21T05:54:53.926Z,1.44
2024-04-21T05:55:26.663Z,1.48
2024-04-21T05:55:59.351Z,1.51
2024-04-21T05:56:32.025Z,1.55
2024-04-21T05:57:04.697Z,1.58
2024-04-21T05:57:37.381Z,1.62
2024-04-21T05:58:10.091Z,1.65
2024-04-21T05:58:42.764Z,1.68
2024-04-21T05:59:15.436Z,1.70
2024-04-21T05:59:48.096Z,1.73
2024-04-21T06:00:20.772Z,1.76
2024-04-21T06:00:53.534Z,1.79
2024-04-21T06:01:26.220Z,1.83
2024-04-21T06:01:58.904Z,1.81
2024-04-21T06:02:31.647Z,1.86
2024-04-21T06:03:04.372Z,1.88
2024-04-21T06:03:35.421Z,1.91
2024-04-21T06:04:08.152Z,1.93
2024-04-21T06:04:40.999Z,1.95
2024-04-21T06:05:13.703Z,1.95
2024-04-21T06:05:46.382Z,1.98
2024-04-21T06:06:19.058Z,2.00
2024-04-21T06:06:51.768Z,2.02
2024-04-21T06:07:24.464Z,2.06
2024-04-21T06:07:57.125Z,2.09
2024-04-21T06:08:29.823Z,2.14
2024-04-21T06:09:02.482Z,2.16
2024-04-21T06:09:35.160Z,2.18
2024-04-21T06:10:07.860Z,2.24
2024-04-21T06:10:40.606Z,2.25
2024-04-21T06:11:13.317Z,2.30
2024-04-21T06:11:46.030Z,2.34
2024-04-21T06:12:18.684Z,2.36
2024-04-21T06:12:51.370Z,2.39
2024-04-21T06:13:24.080Z,2.46
2024-04-21T06:13:56.741Z,2.49
2024-04-21T06:14:29.417Z,2.52
2024-04-21T06:15:02.074Z,2.56
2024-04-21T06:15:34.750Z,2.60
2024-04-21T06:16:05.875Z,2.61
2024-04-21T06:16:38.572Z,2.69
2024-04-21T06:17:11.262Z,2.72
2024-04-21T06:17:43.978Z,2.75
2024-04-21T06:18:16.706Z,2.77
2024-04-21T06:18:49.889Z,2.81
2024-04-21T06:19:16.288Z,2.85
2024-04-21T06:19:48.996Z,2.87
2024-04-21T06:20:21.671Z,2.93
2024-04-21T06:20:54.339Z,2.95
2024-04-21T06:21:27.034Z,3.00
2024-04-21T06:21:59.726Z,3.02
2024-04-21T06:22:32.402Z,3.03
2024-04-21T06:23:05.054Z,3.08
2024-04-21T06:23:37.869Z,3.13
2024-04-21T06:24:10.511Z,3.18
2024-04-21T06:24:43.176Z,3.21
2024-04-21T06:25:15.936Z,3.28
2024-04-21T06:25:48.608Z,3.32
2024-04-21T06:26:21.294Z,3.28
2024-04-21T06:26:53.959Z,3.21
2024-04-21T06:27:26.638Z,3.20
2024-04-21T06:27:59.328Z,3.17
2024-04-21T06:28:32.118Z,3.18
2024-04-21T06:29:04.784Z,3.23
2024-04-21T06:29:37.477Z,3.28
2024-04-21T06:30:10.149Z,3.32
2024-04-21T06:30:42.829Z,3.36
2024-04-21T06:31:15.657Z,3.45
2024-04-21T06:31:46.666Z,3.51
2024-04-21T06:32:19.433Z,3.55
2024-04-21T06:32:52.164Z,3.58
2024-04-21T06:33:24.815Z,3.66
2024-04-21T06:33:57.527Z,3.70
2024-04-21T06:34:30.249Z,3.75
2024-04-21T06:35:02.909Z,3.78
2024-04-21T06:35:35.585Z,3.84
2024-04-21T06:36:08.255Z,3.86
2024-04-21T06:36:40.952Z,3.88
2024-04-21T06:37:13.629Z,3.88
2024-04-21T06:37:46.327Z,3.91
2024-04-21T06:38:19.027Z,3.88
2024-04-21T06:38:51.694Z,3.90
2024-04-21T06:39:24.371Z,3.93
2024-04-21T06:39:57.055Z,3.96
2024-04-21T06:40:29.794Z,4.02
2024-04-21T06:41:02.541Z,4.06
2024-04-21T06:41:35.208Z,4.08
2024-04-21T06:42:07.901Z,4.02
2024-04-21T06:42:40.591Z,4.02
2024-04-21T06:43:13.280Z,4.04
2024-04-21T06:43:45.956Z,4.08
2024-04-21T06:44:18.628Z,4.09
2024-04-21T06:44:51.318Z,4.14
2024-04-21T06:45:23.983Z,4.16
2024-04-21T06:45:56.721Z,4.22
2024-04-21T06:46:29.419Z,4.26
2024-04-21T06:47:02.125Z,4.27
2024-04-21T06:47:34.919Z,4.32
2024-04-21T06:48:07.721Z,4.37
2024-04-21T06:48:40.595Z,4.41
2024-04-21T06:49:13.316Z,4.48
2024-04-21T06:49:46.097Z,4.51
2024-04-21T06:50:18.767Z,4.52
2024-04-21T06:50:51.443Z,4.55
2024-04-21T06:51:24.118Z,4.60
2024-04-21T06:51:56.841Z,4.58
2024-04-21T06:52:29.671Z,4.54
2024-04-21T06:53:00.692Z,4.48
2024-04-21T06:53:35.580Z,4.51
2024-04-21T06:54:02.060Z,4.58
2024-04-21T06:54:34.727Z,4.59
2024-04-21T06:55:07.453Z,4.58
2024-04-21T06:55:40.157Z,4.59
2024-04-21T06:56:12.836Z,4.65
2024-04-21T06:56:45.510Z,4.70
2024-04-21T06:57:18.351Z,4.73
2024-04-21T06:57:51.007Z,4.82
2024-04-21T06:58:23.715Z,4.89
2024-04-21T06:58:50.537Z,4.92
2024-04-21T06:59:23.243Z,4.96
2024-04-21T06:59:55.915Z,5.02
2024-04-21T07:00:28.626Z,5.02
2024-04-21T07:01:01.441Z,5.03
2024-04-21T07:01:34.338Z,5.04
2024-04-21T07:02:07.404Z,5.09
2024-04-21T07:02:33.669Z,5.12
2024-04-21T07:03:09.067Z,5.18
2024-04-21T07:03:36.256Z,5.17
2024-04-21T07:04:02.767Z,5.15
2024-04-21T07:04:35.537Z,5.18